CYTZ/YTZ METAR and TAF weather

Enter ICAO airport designator
Station Type Date Time Source
CYTZ METAR 2022/01/26 20:00 UTC NOAA

CYTZ 262000Z AUTO 05013G18KT 9SM -SN CLR M10/M13 A3040 RMK SLP301


Station Type Date Time Source
CYTZ Decoded METAR 2022/01/26 20:00 UTC NOAA

Toronto Island Airport Automated Reporting Station, Canada (CYTZ) 43-38N 079-24W
Jan 26, 2022 - 03:00 PM EST / 2022.01.26 2000 UTC
Wind: from the NE (050 degrees) at 15 MPH (13 KT) gusting to 21 MPH (18 KT):0
Visibility: 9 mile(s):0
Sky conditions: clear
Weather: light snow
Temperature: 14 F (-10 C)
Windchill: -2 F (-19 C):1
Dew Point: 8 F (-13 C)
Relative Humidity: 78%
Pressure (altimeter): 30.4 in. Hg (1029 hPa)
ob: CYTZ 262000Z AUTO 05013G18KT 9SM -SN CLR M10/M13 A3040 RMK SLP301
cycle: 20

Station Type Date Time Source
CYTZ TAF 2022/01/26 20:42 UTC NOAA

TAF CYTZ 261940Z 2620/2720 06012KT P6SM SCT040
TEMPO 2620/2702 5SM -SHSN BKN040 PROB30 2620/2624 1 1/2SM -SHSN VV012
FM270200 24012KT P6SM FEW020 BKN200
FM270500 24012G22KT P6SM BKN020 OVC180
BECMG 2712/2714 24018G28KT
FM271500 23020G30KT P6SM BKN020 OVC050
FM271800 23020G30KT 4SM -SN OVC025
FM271900 23020G32KT 2SM -SN OVC020
RMK FCST BASED ON AUTO OBS. NXT FCST BY 270200Z

Example: see airport list